sensor_id;sensor_type;location;lat;lon;timestamp;temperature;humidity
14737;DHT22;7459;53.590;10.062;2023-07-20T00:00:52;16.30;99.90
14737;DHT22;7459;53.590;10.062;2023-07-20T00:03:19;16.30;99.90
14737;DHT22;7459;53.590;10.062;2023-07-20T00:05:49;16.30;99.90
14737;DHT22;7459;53.590;10.062;2023-07-20T00:08:15;16.30;99.90
14737;DHT22;7459;53.590;10.062;2023-07-20T00:10:41;16.40;99.90
14737;DHT22;7459;53.590;10.062;2023-07-20T00:13:07;16.40;99.90
14737;DHT22;7459;53.590;10.062;2023-07-20T00:15:33;16.40;99.90
14737;DHT22;7459;53.590;10.062;2023-07-20T00:17:59;16.40;99.90
14737;DHT22;7459;53.590;10.062;2023-07-20T00:20:25;16.40;99.90
14737;DHT22;7459;53.590;10.062;2023-07-20T00:22:51;16.30;99.90
14737;DHT22;7459;53.590;10.062;2023-07-20T00:25:17;16.40;99.90
14737;DHT22;7459;53.590;10.062;2023-07-20T00:27:43;16.30;99.90
14737;DHT22;7459;53.590;10.062;2023-07-20T00:30:09;16.40;99.90
14737;DHT22;7459;53.590;10.062;2023-07-20T00:32:35;16.40;99.90
14737;DHT22;7459;53.590;10.062;2023-07-20T00:35:01;16.30;99.90
14737;DHT22;7459;53.590;10.062;2023-07-20T00:37:27;16.40;99.90
14737;DHT22;7459;53.590;10.062;2023-07-20T00:39:53;16.40;99.90
14737;DHT22;7459;53.590;10.062;2023-07-20T00:42:19;16.40;99.90
14737;DHT22;7459;53.590;10.062;2023-07-20T00:44:44;16.40;99.90
14737;DHT22;7459;53.590;10.062;2023-07-20T00:47:10;16.40;99.90
14737;DHT22;7459;53.590;10.062;2023-07-20T00:49:37;16.40;99.90
14737;DHT22;7459;53.590;10.062;2023-07-20T00:52:03;16.30;99.90
14737;DHT22;7459;53.590;10.062;2023-07-20T00:54:32;16.30;99.90
14737;DHT22;7459;53.590;10.062;2023-07-20T00:57:00;16.20;99.90
14737;DHT22;7459;53.590;10.062;2023-07-20T00:59:27;16.20;99.90
14737;DHT22;7459;53.590;10.062;2023-07-20T01:01:52;16.20;99.90
14737;DHT22;7459;53.590;10.062;2023-07-20T01:04:18;16.10;99.90
14737;DHT22;7459;53.590;10.062;2023-07-20T01:07:32;16.10;99.90
14737;DHT22;7459;53.590;10.062;2023-07-20T01:10:31;16.10;99.90
14737;DHT22;7459;53.590;10.062;2023-07-20T01:12:42;16.10;99.90
14737;DHT22;7459;53.590;10.062;2023-07-20T01:15:09;16.00;99.90
14737;DHT22;7459;53.590;10.062;2023-07-20T01:17:35;16.00;99.90
14737;DHT22;7459;53.590;10.062;2023-07-20T01:20:02;16.00;99.90
14737;DHT22;7459;53.590;10.062;2023-07-20T01:31:32;16.00;99.90
14737;DHT22;7459;53.590;10.062;2023-07-20T01:34:00;16.00;99.90
14737;DHT22;7459;53.590;10.062;2023-07-20T01:36:35;16.00;99.90
14737;DHT22;7459;53.590;10.062;2023-07-20T01:39:02;16.00;99.90
14737;DHT22;7459;53.590;10.062;2023-07-20T01:41:30;16.00;99.90
14737;DHT22;7459;53.590;10.062;2023-07-20T01:43:58;16.00;99.90
14737;DHT22;7459;53.590;10.062;2023-07-20T01:46:24;15.90;99.90
14737;DHT22;7459;53.590;10.062;2023-07-20T01:48:50;15.90;99.90
14737;DHT22;7459;53.590;10.062;2023-07-20T01:51:16;15.90;99.90
14737;DHT22;7459;53.590;10.062;2023-07-20T01:53:43;15.90;99.90
14737;DHT22;7459;53.590;10.062;2023-07-20T01:56:09;15.90;99.90
14737;DHT22;7459;53.590;10.062;2023-07-20T01:58:34;15.90;99.90
14737;DHT22;7459;53.590;10.062;2023-07-20T02:01:01;15.90;99.90
14737;DHT22;7459;53.590;10.062;2023-07-20T02:03:27;16.00;99.90
14737;DHT22;7459;53.590;10.062;2023-07-20T02:05:53;16.00;99.90
14737;DHT22;7459;53.590;10.062;2023-07-20T02:08:18;16.00;99.90
14737;DHT22;7459;53.590;10.062;2023-07-20T02:10:48;16.00;99.90
14737;DHT22;7459;53.590;10.062;2023-07-20T02:13:14;15.90;99.90
14737;DHT22;7459;53.590;10.062;2023-07-20T02:15:39;16.00;99.90
14737;DHT22;7459;53.590;10.062;2023-07-20T02:18:06;16.00;99.90
14737;DHT22;7459;53.590;10.062;2023-07-20T02:20:31;15.90;99.90
14737;DHT22;7459;53.590;10.062;2023-07-20T02:22:57;15.90;99.90
14737;DHT22;7459;53.590;10.062;2023-07-20T02:25:23;15.90;99.90
14737;DHT22;7459;53.590;10.062;2023-07-20T02:27:48;15.90;99.90
14737;DHT22;7459;53.590;10.062;2023-07-20T02:30:14;15.90;99.90
14737;DHT22;7459;53.590;10.062;2023-07-20T02:32:41;15.90;99.90
14737;DHT22;7459;53.590;10.062;2023-07-20T02:35:11;15.80;99.90
14737;DHT22;7459;53.590;10.062;2023-07-20T02:37:37;15.80;99.90
14737;DHT22;7459;53.590;10.062;2023-07-20T02:40:03;15.80;99.90
14737;DHT22;7459;53.590;10.062;2023-07-20T02:42:30;15.70;99.90
14737;DHT22;7459;53.590;10.062;2023-07-20T02:44:56;15.80;99.90
14737;DHT22;7459;53.590;10.062;2023-07-20T02:47:21;15.80;99.90
14737;DHT22;7459;53.590;10.062;2023-07-20T02:49:47;15.70;99.90
14737;DHT22;7459;53.590;10.062;2023-07-20T02:52:13;15.80;99.90
14737;DHT22;7459;53.590;10.062;2023-07-20T02:54:38;15.80;99.90
14737;DHT22;7459;53.590;10.062;2023-07-20T02:57:04;15.80;99.90
14737;DHT22;7459;53.590;10.062;2023-07-20T02:59:30;15.80;99.90
14737;DHT22;7459;53.590;10.062;2023-07-20T03:01:56;15.80;99.90
14737;DHT22;7459;53.590;10.062;2023-07-20T03:04:23;15.80;99.90
14737;DHT22;7459;53.590;10.062;2023-07-20T03:06:50;15.80;99.90
14737;DHT22;7459;53.590;10.062;2023-07-20T03:09:16;15.80;99.90
14737;DHT22;7459;53.590;10.062;2023-07-20T03:11:42;15.70;99.90
14737;DHT22;7459;53.590;10.062;2023-07-20T03:14:08;15.70;99.90
14737;DHT22;7459;53.590;10.062;2023-07-20T03:16:33;15.70;99.90
14737;DHT22;7459;53.590;10.062;2023-07-20T03:18:59;15.60;99.90
14737;DHT22;7459;53.590;10.062;2023-07-20T03:21:29;15.60;99.90
14737;DHT22;7459;53.590;10.062;2023-07-20T03:23:54;15.70;99.90
14737;DHT22;7459;53.590;10.062;2023-07-20T03:26:20;15.70;99.90
14737;DHT22;7459;53.590;10.062;2023-07-20T03:28:46;15.70;99.90
14737;DHT22;7459;53.590;10.062;2023-07-20T03:31:11;15.70;99.90
14737;DHT22;7459;53.590;10.062;2023-07-20T03:33:37;15.70;99.90
14737;DHT22;7459;53.590;10.062;2023-07-20T03:36:03;15.60;99.90
14737;DHT22;7459;53.590;10.062;2023-07-20T03:38:29;15.70;99.90
14737;DHT22;7459;53.590;10.062;2023-07-20T03:40:59;15.70;99.90
14737;DHT22;7459;53.590;10.062;2023-07-20T03:43:26;15.70;99.90
14737;DHT22;7459;53.590;10.062;2023-07-20T03:45:53;15.70;99.90
14737;DHT22;7459;53.590;10.062;2023-07-20T03:48:21;15.70;99.90
14737;DHT22;7459;53.590;10.062;2023-07-20T03:50:48;15.70;99.90
14737;DHT22;7459;53.590;10.062;2023-07-20T03:53:15;15.70;99.90
14737;DHT22;7459;53.590;10.062;2023-07-20T03:55:44;15.70;99.90
14737;DHT22;7459;53.590;10.062;2023-07-20T03:58:14;15.70;99.90
14737;DHT22;7459;53.590;10.062;2023-07-20T04:00:40;15.70;99.90
14737;DHT22;7459;53.590;10.062;2023-07-20T04:03:09;15.70;99.90
14737;DHT22;7459;53.590;10.062;2023-07-20T04:05:35;15.60;99.90
14737;DHT22;7459;53.590;10.062;2023-07-20T04:08:01;15.70;99.90
14737;DHT22;7459;53.590;10.062;2023-07-20T04:10:26;15.70;99.90
14737;DHT22;7459;53.590;10.062;2023-07-20T04:12:52;15.60;99.90
14737;DHT22;7459;53.590;10.062;2023-07-20T04:15:18;15.50;99.90
14737;DHT22;7459;53.590;10.062;2023-07-20T04:17:45;15.50;99.90
14737;DHT22;7459;53.590;10.062;2023-07-20T04:20:11;15.50;99.90
14737;DHT22;7459;53.590;10.062;2023-07-20T04:22:36;15.50;99.90
14737;DHT22;7459;53.590;10.062;2023-07-20T04:25:03;15.40;99.90
14737;DHT22;7459;53.590;10.062;2023-07-20T04:27:29;15.40;99.90
14737;DHT22;7459;53.590;10.062;2023-07-20T04:29:55;15.50;99.90
14737;DHT22;7459;53.590;10.062;2023-07-20T04:32:21;15.40;99.90
14737;DHT22;7459;53.590;10.062;2023-07-20T04:34:47;15.50;99.90
14737;DHT22;7459;53.590;10.062;2023-07-20T04:37:12;15.50;99.90
14737;DHT22;7459;53.590;10.062;2023-07-20T04:39:38;15.50;99.90
14737;DHT22;7459;53.590;10.062;2023-07-20T04:42:04;15.50;99.90
14737;DHT22;7459;53.590;10.062;2023-07-20T04:44:30;15.50;99.90
14737;DHT22;7459;53.590;10.062;2023-07-20T04:46:55;15.60;99.90
14737;DHT22;7459;53.590;10.062;2023-07-20T04:49:21;15.60;99.90
14737;DHT22;7459;53.590;10.062;2023-07-20T04:51:47;15.60;99.90
14737;DHT22;7459;53.590;10.062;2023-07-20T04:54:12;15.60;99.90
14737;DHT22;7459;53.590;10.062;2023-07-20T04:56:39;15.60;99.90
14737;DHT22;7459;53.590;10.062;2023-07-20T04:59:04;15.70;99.90
14737;DHT22;7459;53.590;10.062;2023-07-20T05:01:30;15.60;99.90
14737;DHT22;7459;53.590;10.062;2023-07-20T05:06:33;15.70;99.90
14737;DHT22;7459;53.590;10.062;2023-07-20T05:08:58;15.70;99.90
14737;DHT22;7459;53.590;10.062;2023-07-20T05:11:24;15.70;99.90
14737;DHT22;7459;53.590;10.062;2023-07-20T05:13:50;15.80;99.90
14737;DHT22;7459;53.590;10.062;2023-07-20T05:16:15;15.80;99.90
14737;DHT22;7459;53.590;10.062;2023-07-20T05:18:41;15.80;99.90
14737;DHT22;7459;53.590;10.062;2023-07-20T05:21:07;15.80;99.90
14737;DHT22;7459;53.590;10.062;2023-07-20T05:23:33;15.80;99.90
14737;DHT22;7459;53.590;10.062;2023-07-20T05:25:59;15.80;99.90
14737;DHT22;7459;53.590;10.062;2023-07-20T05:28:25;15.80;99.90
14737;DHT22;7459;53.590;10.062;2023-07-20T05:30:52;15.80;99.90
14737;DHT22;7459;53.590;10.062;2023-07-20T05:33:19;15.90;99.90
14737;DHT22;7459;53.590;10.062;2023-07-20T05:35:45;15.90;99.90
14737;DHT22;7459;53.590;10.062;2023-07-20T05:38:11;15.90;99.90
14737;DHT22;7459;53.590;10.062;2023-07-20T05:40:39;16.00;99.90
14737;DHT22;7459;53.590;10.062;2023-07-20T05:43:05;15.90;99.90
14737;DHT22;7459;53.590;10.062;2023-07-20T05:45:31;15.90;99.90
14737;DHT22;7459;53.590;10.062;2023-07-20T05:47:57;15.90;99.90
14737;DHT22;7459;53.590;10.062;2023-07-20T05:50:22;16.00;99.90
14737;DHT22;7459;53.590;10.062;2023-07-20T05:52:48;16.00;99.90
14737;DHT22;7459;53.590;10.062;2023-07-20T05:55:14;16.10;99.90
14737;DHT22;7459;53.590;10.062;2023-07-20T05:57:40;16.00;99.90
14737;DHT22;7459;53.590;10.062;2023-07-20T06:00:08;16.10;99.90
14737;DHT22;7459;53.590;10.062;2023-07-20T06:02:34;16.10;99.90
14737;DHT22;7459;53.590;10.062;2023-07-20T06:05:00;16.10;99.90
14737;DHT22;7459;53.590;10.062;2023-07-20T06:07:26;16.20;99.90
14737;DHT22;7459;53.590;10.062;2023-07-20T06:09:52;16.20;99.90
14737;DHT22;7459;53.590;10.062;2023-07-20T06:12:17;16.30;99.90
14737;DHT22;7459;53.590;10.062;2023-07-20T06:14:43;16.30;99.90
14737;DHT22;7459;53.590;10.062;2023-07-20T06:17:09;16.30;99.90
14737;DHT22;7459;53.590;10.062;2023-07-20T06:19:35;16.30;99.90
14737;DHT22;7459;53.590;10.062;2023-07-20T06:22:01;16.20;99.90
14737;DHT22;7459;53.590;10.062;2023-07-20T06:24:26;16.20;99.90
14737;DHT22;7459;53.590;10.062;2023-07-20T06:26:52;16.10;99.90
14737;DHT22;7459;53.590;10.062;2023-07-20T06:29:18;16.20;99.90
14737;DHT22;7459;53.590;10.062;2023-07-20T06:31:44;16.20;99.90
14737;DHT22;7459;53.590;10.062;2023-07-20T06:34:10;16.20;99.90
14737;DHT22;7459;53.590;10.062;2023-07-20T06:36:35;16.30;99.90
14737;DHT22;7459;53.590;10.062;2023-07-20T06:39:01;16.30;99.90
14737;DHT22;7459;53.590;10.062;2023-07-20T06:41:28;16.30;99.90
14737;DHT22;7459;53.590;10.062;2023-07-20T06:43:53;16.30;99.90
14737;DHT22;7459;53.590;10.062;2023-07-20T06:46:24;16.30;99.90
14737;DHT22;7459;53.590;10.062;2023-07-20T06:48:53;16.30;99.90
14737;DHT22;7459;53.590;10.062;2023-07-20T06:51:19;16.30;99.90
14737;DHT22;7459;53.590;10.062;2023-07-20T06:53:45;16.30;99.90
14737;DHT22;7459;53.590;10.062;2023-07-20T06:56:11;16.30;99.90
14737;DHT22;7459;53.590;10.062;2023-07-20T06:58:37;16.30;99.90
14737;DHT22;7459;53.590;10.062;2023-07-20T07:01:07;16.30;99.90
14737;DHT22;7459;53.590;10.062;2023-07-20T07:03:33;16.40;99.90
14737;DHT22;7459;53.590;10.062;2023-07-20T07:05:59;16.40;99.90
14737;DHT22;7459;53.590;10.062;2023-07-20T07:08:25;16.50;99.90
14737;DHT22;7459;53.590;10.062;2023-07-20T07:10:51;16.50;99.90
14737;DHT22;7459;53.590;10.062;2023-07-20T07:13:17;16.50;99.90
14737;DHT22;7459;53.590;10.062;2023-07-20T07:15:44;16.40;99.90
14737;DHT22;7459;53.590;10.062;2023-07-20T07:18:09;16.40;99.90
14737;DHT22;7459;53.590;10.062;2023-07-20T07:20:35;16.40;99.90
14737;DHT22;7459;53.590;10.062;2023-07-20T07:23:01;16.40;99.90
14737;DHT22;7459;53.590;10.062;2023-07-20T07:25:27;16.30;99.90
14737;DHT22;7459;53.590;10.062;2023-07-20T07:27:53;16.30;99.90
14737;DHT22;7459;53.590;10.062;2023-07-20T07:30:19;16.40;99.90
14737;DHT22;7459;53.590;10.062;2023-07-20T07:32:45;16.40;99.90
14737;DHT22;7459;53.590;10.062;2023-07-20T07:35:11;16.50;99.90
14737;DHT22;7459;53.590;10.062;2023-07-20T07:37:38;16.50;99.90
14737;DHT22;7459;53.590;10.062;2023-07-20T07:40:04;16.50;99.90
14737;DHT22;7459;53.590;10.062;2023-07-20T07:42:31;16.50;99.90
14737;DHT22;7459;53.590;10.062;2023-07-20T07:44:57;16.40;99.90
14737;DHT22;7459;53.590;10.062;2023-07-20T07:47:23;16.40;99.90
14737;DHT22;7459;53.590;10.062;2023-07-20T07:49:48;16.40;99.90
14737;DHT22;7459;53.590;10.062;2023-07-20T07:52:15;16.30;99.90
14737;DHT22;7459;53.590;10.062;2023-07-20T07:54:41;16.20;99.90
14737;DHT22;7459;53.590;10.062;2023-07-20T07:57:06;16.20;99.90
14737;DHT22;7459;53.590;10.062;2023-07-20T07:59:32;16.20;99.90
14737;DHT22;7459;53.590;10.062;2023-07-20T08:02:05;16.30;99.90
14737;DHT22;7459;53.590;10.062;2023-07-20T08:04:31;16.30;99.90
14737;DHT22;7459;53.590;10.062;2023-07-20T08:06:57;16.40;99.90
14737;DHT22;7459;53.590;10.062;2023-07-20T08:09:24;16.40;99.90
14737;DHT22;7459;53.590;10.062;2023-07-20T08:11:50;16.40;99.90
14737;DHT22;7459;53.590;10.062;2023-07-20T08:14:16;16.40;99.90
14737;DHT22;7459;53.590;10.062;2023-07-20T08:16:41;16.40;99.90
14737;DHT22;7459;53.590;10.062;2023-07-20T08:19:08;16.40;99.90
14737;DHT22;7459;53.590;10.062;2023-07-20T08:21:34;16.40;99.90
14737;DHT22;7459;53.590;10.062;2023-07-20T08:23:59;16.50;99.90
14737;DHT22;7459;53.590;10.062;2023-07-20T08:26:25;16.50;99.90
14737;DHT22;7459;53.590;10.062;2023-07-20T08:28:51;16.60;99.90
14737;DHT22;7459;53.590;10.062;2023-07-20T08:31:17;16.70;99.90
14737;DHT22;7459;53.590;10.062;2023-07-20T08:33:43;16.70;99.90
14737;DHT22;7459;53.590;10.062;2023-07-20T08:36:09;16.80;99.90
14737;DHT22;7459;53.590;10.062;2023-07-20T08:38:34;16.80;99.90
14737;DHT22;7459;53.590;10.062;2023-07-20T08:41:00;16.80;99.90
14737;DHT22;7459;53.590;10.062;2023-07-20T08:43:27;16.80;99.90
14737;DHT22;7459;53.590;10.062;2023-07-20T08:45:57;16.90;99.90
14737;DHT22;7459;53.590;10.062;2023-07-20T08:48:24;17.00;99.90
14737;DHT22;7459;53.590;10.062;2023-07-20T08:50:51;17.00;99.90
14737;DHT22;7459;53.590;10.062;2023-07-20T08:53:20;17.20;99.90
14737;DHT22;7459;53.590;10.062;2023-07-20T08:55:46;17.30;99.90
14737;DHT22;7459;53.590;10.062;2023-07-20T08:58:14;17.20;99.90
14737;DHT22;7459;53.590;10.062;2023-07-20T09:00:41;17.20;99.90
14737;DHT22;7459;53.590;10.062;2023-07-20T09:03:07;17.30;99.90
14737;DHT22;7459;53.590;10.062;2023-07-20T09:05:34;17.20;99.90
14737;DHT22;7459;53.590;10.062;2023-07-20T09:08:01;17.40;99.90
14737;DHT22;7459;53.590;10.062;2023-07-20T09:10:29;17.30;99.90
14737;DHT22;7459;53.590;10.062;2023-07-20T09:12:55;17.40;99.90
14737;DHT22;7459;53.590;10.062;2023-07-20T09:15:22;17.60;99.90
14737;DHT22;7459;53.590;10.062;2023-07-20T09:17:50;17.60;99.90
14737;DHT22;7459;53.590;10.062;2023-07-20T09:20:17;17.80;99.90
14737;DHT22;7459;53.590;10.062;2023-07-20T09:22:44;17.70;99.90
14737;DHT22;7459;53.590;10.062;2023-07-20T09:25:14;17.70;99.90
14737;DHT22;7459;53.590;10.062;2023-07-20T09:27:42;17.60;99.90
14737;DHT22;7459;53.590;10.062;2023-07-20T09:30:14;17.40;99.90
14737;DHT22;7459;53.590;10.062;2023-07-20T09:32:42;17.40;99.90
14737;DHT22;7459;53.590;10.062;2023-07-20T09:35:17;17.10;99.90
14737;DHT22;7459;53.590;10.062;2023-07-20T09:37:50;17.00;99.90
14737;DHT22;7459;53.590;10.062;2023-07-20T09:40:28;16.80;99.90
14737;DHT22;7459;53.590;10.062;2023-07-20T09:42:55;16.80;99.90
14737;DHT22;7459;53.590;10.062;2023-07-20T09:45:29;16.80;99.90
14737;DHT22;7459;53.590;10.062;2023-07-20T09:48:07;16.80;99.90
14737;DHT22;7459;53.590;10.062;2023-07-20T09:50:39;17.00;99.90
14737;DHT22;7459;53.590;10.062;2023-07-20T09:53:11;16.90;99.90
14737;DHT22;7459;53.590;10.062;2023-07-20T09:55:41;16.90;99.90
14737;DHT22;7459;53.590;10.062;2023-07-20T09:58:08;17.00;99.90
14737;DHT22;7459;53.590;10.062;2023-07-20T10:00:36;17.00;99.90
14737;DHT22;7459;53.590;10.062;2023-07-20T10:03:04;17.00;99.90
14737;DHT22;7459;53.590;10.062;2023-07-20T10:05:33;17.00;99.90
14737;DHT22;7459;53.590;10.062;2023-07-20T10:08:02;17.10;99.90
14737;DHT22;7459;53.590;10.062;2023-07-20T10:10:29;17.20;99.90
14737;DHT22;7459;53.590;10.062;2023-07-20T10:12:57;17.30;99.90
14737;DHT22;7459;53.590;10.062;2023-07-20T10:15:28;17.20;99.90
14737;DHT22;7459;53.590;10.062;2023-07-20T10:18:09;17.30;99.90
14737;DHT22;7459;53.590;10.062;2023-07-20T10:20:40;17.50;99.90
14737;DHT22;7459;53.590;10.062;2023-07-20T10:23:09;17.70;99.90
14737;DHT22;7459;53.590;10.062;2023-07-20T10:25:34;17.60;99.90
14737;DHT22;7459;53.590;10.062;2023-07-20T10:28:07;17.70;99.90
14737;DHT22;7459;53.590;10.062;2023-07-20T10:30:36;17.50;99.90
14737;DHT22;7459;53.590;10.062;2023-07-20T10:33:05;17.60;99.90
14737;DHT22;7459;53.590;10.062;2023-07-20T10:35:51;17.60;99.90
14737;DHT22;7459;53.590;10.062;2023-07-20T10:38:17;17.50;99.90
14737;DHT22;7459;53.590;10.062;2023-07-20T10:40:54;17.50;99.90
14737;DHT22;7459;53.590;10.062;2023-07-20T10:43:20;17.50;99.90
14737;DHT22;7459;53.590;10.062;2023-07-20T10:45:51;17.60;99.90
14737;DHT22;7459;53.590;10.062;2023-07-20T10:48:22;17.50;99.90
14737;DHT22;7459;53.590;10.062;2023-07-20T10:51:08;17.70;99.90
14737;DHT22;7459;53.590;10.062;2023-07-20T10:53:39;17.70;99.90
14737;DHT22;7459;53.590;10.062;2023-07-20T10:56:08;17.70;99.90
14737;DHT22;7459;53.590;10.062;2023-07-20T10:58:37;17.80;99.90
14737;DHT22;7459;53.590;10.062;2023-07-20T11:01:04;17.70;99.90
14737;DHT22;7459;53.590;10.062;2023-07-20T11:03:36;17.70;99.90
14737;DHT22;7459;53.590;10.062;2023-07-20T11:09:07;18.00;99.90
14737;DHT22;7459;53.590;10.062;2023-07-20T11:11:37;17.90;99.90
14737;DHT22;7459;53.590;10.062;2023-07-20T11:14:20;18.10;99.90
14737;DHT22;7459;53.590;10.062;2023-07-20T11:16:49;18.20;99.90
14737;DHT22;7459;53.590;10.062;2023-07-20T11:19:21;18.00;99.90
14737;DHT22;7459;53.590;10.062;2023-07-20T11:21:53;18.00;99.90
14737;DHT22;7459;53.590;10.062;2023-07-20T11:24:20;17.90;99.90
14737;DHT22;7459;53.590;10.062;2023-07-20T11:26:48;18.00;99.90
14737;DHT22;7459;53.590;10.062;2023-07-20T11:29:16;17.90;99.90
14737;DHT22;7459;53.590;10.062;2023-07-20T11:31:44;18.00;99.90
14737;DHT22;7459;53.590;10.062;2023-07-20T11:34:12;18.10;99.90
14737;DHT22;7459;53.590;10.062;2023-07-20T11:36:43;18.10;99.90
14737;DHT22;7459;53.590;10.062;2023-07-20T11:39:10;18.20;99.90
14737;DHT22;7459;53.590;10.062;2023-07-20T11:41:44;18.30;99.90
14737;DHT22;7459;53.590;10.062;2023-07-20T11:44:12;18.20;99.90
14737;DHT22;7459;53.590;10.062;2023-07-20T11:46:39;18.20;99.90
14737;DHT22;7459;53.590;10.062;2023-07-20T11:49:05;18.20;99.90
14737;DHT22;7459;53.590;10.062;2023-07-20T11:51:31;18.20;99.90
14737;DHT22;7459;53.590;10.062;2023-07-20T11:53:58;18.20;99.90
14737;DHT22;7459;53.590;10.062;2023-07-20T11:56:25;18.30;99.90
14737;DHT22;7459;53.590;10.062;2023-07-20T11:58:55;18.20;99.90
14737;DHT22;7459;53.590;10.062;2023-07-20T12:01:23;18.40;99.90
14737;DHT22;7459;53.590;10.062;2023-07-20T12:03:49;18.50;99.90
14737;DHT22;7459;53.590;10.062;2023-07-20T12:06:15;18.60;99.90
14737;DHT22;7459;53.590;10.062;2023-07-20T12:08:42;18.60;99.90
14737;DHT22;7459;53.590;10.062;2023-07-20T12:11:08;18.60;99.90
14737;DHT22;7459;53.590;10.062;2023-07-20T12:13:40;18.50;99.90
14737;DHT22;7459;53.590;10.062;2023-07-20T12:16:14;18.40;99.90
14737;DHT22;7459;53.590;10.062;2023-07-20T12:18:42;18.30;99.90
14737;DHT22;7459;53.590;10.062;2023-07-20T12:21:08;18.20;99.90
14737;DHT22;7459;53.590;10.062;2023-07-20T12:23:37;18.10;99.90
14737;DHT22;7459;53.590;10.062;2023-07-20T12:26:07;18.00;99.90
14737;DHT22;7459;53.590;10.062;2023-07-20T12:28:39;17.80;99.90
14737;DHT22;7459;53.590;10.062;2023-07-20T12:31:09;17.80;99.90
14737;DHT22;7459;53.590;10.062;2023-07-20T12:33:39;17.90;99.90
14737;DHT22;7459;53.590;10.062;2023-07-20T12:36:05;18.00;99.90
14737;DHT22;7459;53.590;10.062;2023-07-20T12:38:31;17.80;99.90
14737;DHT22;7459;53.590;10.062;2023-07-20T12:40:57;17.80;99.90
14737;DHT22;7459;53.590;10.062;2023-07-20T12:43:24;17.90;99.90
14737;DHT22;7459;53.590;10.062;2023-07-20T12:45:49;17.80;99.90
14737;DHT22;7459;53.590;10.062;2023-07-20T12:48:15;17.80;99.90
14737;DHT22;7459;53.590;10.062;2023-07-20T12:50:41;17.80;99.90
14737;DHT22;7459;53.590;10.062;2023-07-20T12:53:07;17.90;99.90
14737;DHT22;7459;53.590;10.062;2023-07-20T12:55:32;17.80;99.90
14737;DHT22;7459;53.590;10.062;2023-07-20T12:57:58;18.10;99.90
14737;DHT22;7459;53.590;10.062;2023-07-20T13:00:24;17.90;99.90
14737;DHT22;7459;53.590;10.062;2023-07-20T13:02:50;17.90;99.90
14737;DHT22;7459;53.590;10.062;2023-07-20T13:05:17;18.00;99.90
14737;DHT22;7459;53.590;10.062;2023-07-20T13:07:43;18.00;99.90
14737;DHT22;7459;53.590;10.062;2023-07-20T13:10:09;18.10;99.90
14737;DHT22;7459;53.590;10.062;2023-07-20T13:12:36;18.20;99.90
14737;DHT22;7459;53.590;10.062;2023-07-20T13:15:04;18.20;99.90
14737;DHT22;7459;53.590;10.062;2023-07-20T13:17:35;18.30;99.90
14737;DHT22;7459;53.590;10.062;2023-07-20T13:20:02;18.40;99.90
14737;DHT22;7459;53.590;10.062;2023-07-20T13:22:32;18.40;99.90
14737;DHT22;7459;53.590;10.062;2023-07-20T13:24:58;18.50;99.90
14737;DHT22;7459;53.590;10.062;2023-07-20T13:27:24;18.50;99.90
14737;DHT22;7459;53.590;10.062;2023-07-20T13:29:51;18.60;99.90
14737;DHT22;7459;53.590;10.062;2023-07-20T13:32:17;18.70;99.90
14737;DHT22;7459;53.590;10.062;2023-07-20T13:34:44;18.80;99.90
14737;DHT22;7459;53.590;10.062;2023-07-20T13:37:13;18.90;99.90
14737;DHT22;7459;53.590;10.062;2023-07-20T13:39:39;19.00;99.90
14737;DHT22;7459;53.590;10.062;2023-07-20T13:42:05;19.00;99.90
14737;DHT22;7459;53.590;10.062;2023-07-20T13:44:32;19.00;99.90
14737;DHT22;7459;53.590;10.062;2023-07-20T13:46:58;19.00;99.90
14737;DHT22;7459;53.590;10.062;2023-07-20T13:49:24;18.90;99.90
14737;DHT22;7459;53.590;10.062;2023-07-20T13:51:50;18.90;99.90
14737;DHT22;7459;53.590;10.062;2023-07-20T13:54:15;18.90;99.90
14737;DHT22;7459;53.590;10.062;2023-07-20T13:56:41;19.00;99.90
14737;DHT22;7459;53.590;10.062;2023-07-20T14:01:33;19.00;99.90
14737;DHT22;7459;53.590;10.062;2023-07-20T14:04:00;19.00;99.90
14737;DHT22;7459;53.590;10.062;2023-07-20T14:06:29;19.10;99.90
14737;DHT22;7459;53.590;10.062;2023-07-20T14:08:55;19.20;99.90
14737;DHT22;7459;53.590;10.062;2023-07-20T14:11:22;19.20;99.90
14737;DHT22;7459;53.590;10.062;2023-07-20T14:13:48;19.20;99.90
14737;DHT22;7459;53.590;10.062;2023-07-20T14:16:14;19.20;99.90
14737;DHT22;7459;53.590;10.062;2023-07-20T14:18:39;19.20;99.90
14737;DHT22;7459;53.590;10.062;2023-07-20T14:21:05;19.20;99.90
14737;DHT22;7459;53.590;10.062;2023-07-20T14:23:32;19.00;99.90
14737;DHT22;7459;53.590;10.062;2023-07-20T14:25:58;19.00;99.90
14737;DHT22;7459;53.590;10.062;2023-07-20T14:28:24;19.00;99.90
14737;DHT22;7459;53.590;10.062;2023-07-20T14:30:50;19.10;99.90
14737;DHT22;7459;53.590;10.062;2023-07-20T14:33:16;19.10;99.90
14737;DHT22;7459;53.590;10.062;2023-07-20T14:35:41;19.00;99.90
14737;DHT22;7459;53.590;10.062;2023-07-20T14:38:07;19.00;99.90
14737;DHT22;7459;53.590;10.062;2023-07-20T14:40:33;19.10;99.90
14737;DHT22;7459;53.590;10.062;2023-07-20T14:42:59;19.10;99.90
14737;DHT22;7459;53.590;10.062;2023-07-20T14:45:29;19.10;99.90
14737;DHT22;7459;53.590;10.062;2023-07-20T14:47:55;19.10;99.90
14737;DHT22;7459;53.590;10.062;2023-07-20T14:50:21;19.00;99.90
14737;DHT22;7459;53.590;10.062;2023-07-20T14:52:46;19.10;99.90
14737;DHT22;7459;53.590;10.062;2023-07-20T14:55:12;19.10;99.90
14737;DHT22;7459;53.590;10.062;2023-07-20T14:57:38;19.10;99.90
14737;DHT22;7459;53.590;10.062;2023-07-20T15:00:05;19.10;99.90
14737;DHT22;7459;53.590;10.062;2023-07-20T15:02:36;19.10;99.90
14737;DHT22;7459;53.590;10.062;2023-07-20T15:05:03;19.10;99.90
14737;DHT22;7459;53.590;10.062;2023-07-20T15:07:31;19.10;99.90
14737;DHT22;7459;53.590;10.062;2023-07-20T15:09:57;19.20;99.90
14737;DHT22;7459;53.590;10.062;2023-07-20T15:12:23;19.20;99.90
14737;DHT22;7459;53.590;10.062;2023-07-20T15:15:09;19.20;99.90
14737;DHT22;7459;53.590;10.062;2023-07-20T15:17:36;19.20;99.90
14737;DHT22;7459;53.590;10.062;2023-07-20T15:20:04;19.10;99.90
14737;DHT22;7459;53.590;10.062;2023-07-20T15:22:34;19.20;99.90
14737;DHT22;7459;53.590;10.062;2023-07-20T15:25:07;19.20;99.90
14737;DHT22;7459;53.590;10.062;2023-07-20T15:27:34;19.30;99.90
14737;DHT22;7459;53.590;10.062;2023-07-20T15:30:00;19.30;99.90
14737;DHT22;7459;53.590;10.062;2023-07-20T15:32:26;19.20;99.90
14737;DHT22;7459;53.590;10.062;2023-07-20T15:34:51;19.20;99.90
14737;DHT22;7459;53.590;10.062;2023-07-20T15:37:17;19.10;99.90
14737;DHT22;7459;53.590;10.062;2023-07-20T15:39:43;19.20;99.90
14737;DHT22;7459;53.590;10.062;2023-07-20T15:42:09;19.20;99.90
14737;DHT22;7459;53.590;10.062;2023-07-20T15:44:34;19.20;99.90
14737;DHT22;7459;53.590;10.062;2023-07-20T15:47:00;19.20;99.90